Hlavní strana
METAR-TAF:

METAR-TAF

Letiště :

Mezinárodní letiště Soči

Soči, Rusko

zeměpisná šířka: 43-26N, zeměpisná délka: 039-54E, výška: 16 m

Aktuální stav počasí

Zpráva byla vytvořena před 39 minutami, v 04:30 UTC
Severovýchodní vítr 6 kt
Teplota 10°C
Vlhkost vzduchu 76%
Tlak 1021 hPa
Viditelnost 10 km a více

METAR: URSS 050430Z 04003MPS 9999 NSC 10/06 Q1021 R02/010070 R06/010070 NOSIG RMK R06/00000MPS QFE764

Čas: 09:09 (05:09 UTC)

Předpověď počasí

Zpráva byla vytvořena před 3 hodinami a 13 minutami, v 01:56 UTC
Předpověď platná od 05 v 03 UTC do 06 v 03 UTC
Severovýchodní vítr 12 kt
Viditelnost 10 km a více
Změna
od 05 v 07 UTC do 05 v 08 UTC
Západní vítr 12 kt
Změna
od 05 v 16 UTC do 05 v 17 UTC
Severovýchodní vítr 10 kt
Oblačno až skoro zataženo ve výšce 10000 ft

TAF: URSS 050156Z 0503/0603 05006MPS 9999 NSC BECMG 0507/0508 27006MPS BECMG 0516/0517 05005MPS BKN100

Stav a předpovědi počasí z více než 4 000 letišť (zprávy METAR a TAF).

Červené a žluté tečky na mapě představují dostupné meteorologické stanice.

Když kurzor umístíte na tečku, zobrazí se název stanice.

Pak kliknutím zobrazíte stav a předpověď počasí.

Chcete-li změnit mapu, kliknutím na zelené tlačítko se znaménkem +mapu přiblížíte, kliknutím na zelené tlačítko se znaménkem – mapu oddálíte a kliknutím na zelené šipky přejdete na sousední mapy.


METAR-TAF: